sensor_id;sensor_type;location;lat;lon;timestamp;pressure;altitude;pressure_sealevel;temperature;humidity
12868;BME280;33517;49.866;8.320;2023-02-08T00:00:57;102738.19;;;-3.55;71.28
12868;BME280;33517;49.866;8.320;2023-02-08T00:03:49;102739.91;;;-3.52;71.46
12868;BME280;33517;49.866;8.320;2023-02-08T00:06:42;102737.31;;;-3.54;71.66
12868;BME280;33517;49.866;8.320;2023-02-08T00:09:34;102741.63;;;-3.54;71.51
12868;BME280;33517;49.866;8.320;2023-02-08T00:12:26;102736.50;;;-3.57;71.72
12868;BME280;33517;49.866;8.320;2023-02-08T00:15:18;102738.25;;;-3.58;71.79
12868;BME280;33517;49.866;8.320;2023-02-08T00:18:10;102734.81;;;-3.58;71.92
12868;BME280;33517;49.866;8.320;2023-02-08T00:21:07;102730.53;;;-3.58;71.75
12868;BME280;33517;49.866;8.320;2023-02-08T00:24:00;102731.34;;;-3.56;72.34
12868;BME280;33517;49.866;8.320;2023-02-08T00:26:52;102730.53;;;-3.58;72.15
12868;BME280;33517;49.866;8.320;2023-02-08T00:29:44;102731.41;;;-3.60;72.15
12868;BME280;33517;49.866;8.320;2023-02-08T00:32:36;102727.97;;;-3.61;71.93
12868;BME280;33517;49.866;8.320;2023-02-08T00:35:28;102737.44;;;-3.63;71.84
12868;BME280;33517;49.866;8.320;2023-02-08T00:38:20;102725.47;;;-3.64;72.35
12868;BME280;33517;49.866;8.320;2023-02-08T00:41:13;102734.03;;;-3.65;72.34
12868;BME280;33517;49.866;8.320;2023-02-08T00:44:05;102722.94;;;-3.68;72.03
12868;BME280;33517;49.866;8.320;2023-02-08T00:46:57;102730.69;;;-3.71;72.34
12868;BME280;33517;49.866;8.320;2023-02-08T00:49:49;102737.53;;;-3.70;72.65
12868;BME280;33517;49.866;8.320;2023-02-08T00:52:41;102730.69;;;-3.71;72.57
12868;BME280;33517;49.866;8.320;2023-02-08T00:55:33;102733.28;;;-3.71;72.29
12868;BME280;33517;49.866;8.320;2023-02-08T00:58:26;102735.00;;;-3.73;72.52
12868;BME280;33517;49.866;8.320;2023-02-08T01:01:17;102741.88;;;-3.76;72.87
12868;BME280;33517;49.866;8.320;2023-02-08T01:04:09;102741.06;;;-3.78;72.48
12868;BME280;33517;49.866;8.320;2023-02-08T01:07:01;102741.06;;;-3.79;72.73
12868;BME280;33517;49.866;8.320;2023-02-08T01:09:53;102741.06;;;-3.81;72.93
12868;BME280;33517;49.866;8.320;2023-02-08T01:12:45;102744.53;;;-3.85;72.83
12868;BME280;33517;49.866;8.320;2023-02-08T01:15:38;102736.84;;;-3.86;72.99
12868;BME280;33517;49.866;8.320;2023-02-08T01:18:30;102741.16;;;-3.87;73.36
12868;BME280;33517;49.866;8.320;2023-02-08T01:21:24;102723.19;;;-3.90;73.42
12868;BME280;33517;49.866;8.320;2023-02-08T01:24:16;102730.91;;;-3.90;73.26
12868;BME280;33517;49.866;8.320;2023-02-08T01:27:08;102733.47;;;-3.90;73.42
12868;BME280;33517;49.866;8.320;2023-02-08T01:30:02;102734.34;;;-3.92;73.16
12868;BME280;33517;49.866;8.320;2023-02-08T01:32:55;102722.41;;;-3.96;73.93
12868;BME280;33517;49.866;8.320;2023-02-08T01:35:49;102727.56;;;-3.98;73.35
12868;BME280;33517;49.866;8.320;2023-02-08T01:38:42;102730.13;;;-3.98;73.61
12868;BME280;33517;49.866;8.320;2023-02-08T01:41:36;102731.03;;;-4.00;73.75
12868;BME280;33517;49.866;8.320;2023-02-08T01:48:03;102716.50;;;-4.04;73.44
12868;BME280;33517;49.866;8.320;2023-02-08T01:51:00;102718.25;;;-4.06;73.82
12868;BME280;33517;49.866;8.320;2023-02-08T01:53:54;102710.53;;;-4.08;73.73
12868;BME280;33517;49.866;8.320;2023-02-08T01:56:48;102706.31;;;-4.12;73.96
12868;BME280;33517;49.866;8.320;2023-02-08T01:59:43;102713.19;;;-4.14;74.08
12868;BME280;33517;49.866;8.320;2023-02-08T02:02:36;102707.22;;;-4.17;74.00
12868;BME280;33517;49.866;8.320;2023-02-08T02:05:34;102703.81;;;-4.19;73.85
12868;BME280;33517;49.866;8.320;2023-02-08T02:08:29;102705.53;;;-4.21;74.17
12868;BME280;33517;49.866;8.320;2023-02-08T02:11:21;102692.69;;;-4.23;73.96
12868;BME280;33517;49.866;8.320;2023-02-08T02:14:13;102692.69;;;-4.23;74.32
12868;BME280;33517;49.866;8.320;2023-02-08T02:17:06;102691.03;;;-4.25;74.59
12868;BME280;33517;49.866;8.320;2023-02-08T02:20:03;102697.91;;;-4.27;74.23
12868;BME280;33517;49.866;8.320;2023-02-08T02:23:29;102697.91;;;-4.30;74.67
12868;BME280;33517;49.866;8.320;2023-02-08T02:30:26;102697.13;;;-4.35;74.54
12868;BME280;33517;49.866;8.320;2023-02-08T02:33:43;102699.72;;;-4.38;74.47
12868;BME280;33517;49.866;8.320;2023-02-08T02:36:49;102699.72;;;-4.40;74.49
12868;BME280;33517;49.866;8.320;2023-02-08T02:39:50;102708.31;;;-4.42;74.51
12868;BME280;33517;49.866;8.320;2023-02-08T02:42:55;102697.19;;;-4.43;74.40
12868;BME280;33517;49.866;8.320;2023-02-08T02:46:18;102694.66;;;-4.46;74.70
12868;BME280;33517;49.866;8.320;2023-02-08T02:49:16;102700.66;;;-4.47;74.49
12868;BME280;33517;49.866;8.320;2023-02-08T02:52:11;102694.69;;;-4.50;74.95
12868;BME280;33517;49.866;8.320;2023-02-08T02:55:08;102699.00;;;-4.52;74.70
12868;BME280;33517;49.866;8.320;2023-02-08T02:58:02;102698.13;;;-4.53;74.85
12868;BME280;33517;49.866;8.320;2023-02-08T03:00:57;102688.75;;;-4.54;74.76
12868;BME280;33517;49.866;8.320;2023-02-08T03:03:49;102693.03;;;-4.56;74.80
12868;BME280;33517;49.866;8.320;2023-02-08T03:06:53;102691.31;;;-4.57;75.27
12868;BME280;33517;49.866;8.320;2023-02-08T03:09:57;102688.75;;;-4.58;74.82
12868;BME280;33517;49.866;8.320;2023-02-08T03:12:57;102687.09;;;-4.59;75.24
12868;BME280;33517;49.866;8.320;2023-02-08T03:16:00;102675.06;;;-4.59;75.09
12868;BME280;33517;49.866;8.320;2023-02-08T03:19:03;102680.22;;;-4.60;75.62
12868;BME280;33517;49.866;8.320;2023-02-08T03:22:01;102678.53;;;-4.61;75.45
12868;BME280;33517;49.866;8.320;2023-02-08T03:24:59;102674.22;;;-4.61;75.05
12868;BME280;33517;49.866;8.320;2023-02-08T03:27:58;102676.81;;;-4.62;75.42
12868;BME280;33517;49.866;8.320;2023-02-08T03:30:59;102681.09;;;-4.63;75.51
12868;BME280;33517;49.866;8.320;2023-02-08T03:33:56;102687.94;;;-4.62;75.69
12868;BME280;33517;49.866;8.320;2023-02-08T03:36:53;102687.09;;;-4.62;75.42
12868;BME280;33517;49.866;8.320;2023-02-08T03:39:50;102693.09;;;-4.62;75.64
12868;BME280;33517;49.866;8.320;2023-02-08T03:42:45;102691.38;;;-4.64;75.66
12868;BME280;33517;49.866;8.320;2023-02-08T03:45:39;102700.00;;;-4.67;76.04
12868;BME280;33517;49.866;8.320;2023-02-08T03:48:35;102700.84;;;-4.70;75.75
12868;BME280;33517;49.866;8.320;2023-02-08T03:51:29;102699.13;;;-4.71;76.05
12868;BME280;33517;49.866;8.320;2023-02-08T03:54:26;102700.00;;;-4.70;76.10
12868;BME280;33517;49.866;8.320;2023-02-08T03:57:23;102699.16;;;-4.69;76.33
12868;BME280;33517;49.866;8.320;2023-02-08T04:00:17;102700.00;;;-4.70;76.04
12868;BME280;33517;49.866;8.320;2023-02-08T04:03:14;102701.72;;;-4.72;76.39
12868;BME280;33517;49.866;8.320;2023-02-08T04:06:08;102693.19;;;-4.74;76.41
12868;BME280;33517;49.866;8.320;2023-02-08T04:09:00;102689.78;;;-4.76;76.52
12868;BME280;33517;49.866;8.320;2023-02-08T04:11:52;102694.09;;;-4.77;76.55
12868;BME280;33517;49.866;8.320;2023-02-08T04:14:45;102687.19;;;-4.75;76.63
12868;BME280;33517;49.866;8.320;2023-02-08T04:17:37;102682.91;;;-4.74;76.71
12868;BME280;33517;49.866;8.320;2023-02-08T04:20:29;102687.19;;;-4.73;76.30
12868;BME280;33517;49.866;8.320;2023-02-08T04:23:21;102676.91;;;-4.75;76.60
12868;BME280;33517;49.866;8.320;2023-02-08T04:26:13;102682.94;;;-4.76;76.68
12868;BME280;33517;49.866;8.320;2023-02-08T04:29:05;102677.81;;;-4.77;76.67
12868;BME280;33517;49.866;8.320;2023-02-08T04:31:58;102676.09;;;-4.77;76.83
12868;BME280;33517;49.866;8.320;2023-02-08T04:34:50;102681.22;;;-4.78;76.90
12868;BME280;33517;49.866;8.320;2023-02-08T04:37:42;102679.53;;;-4.78;76.87
12868;BME280;33517;49.866;8.320;2023-02-08T04:40:34;102669.28;;;-4.79;77.03
12868;BME280;33517;49.866;8.320;2023-02-08T04:43:26;102676.13;;;-4.80;76.42
12868;BME280;33517;49.866;8.320;2023-02-08T04:46:18;102675.25;;;-4.80;76.80
12868;BME280;33517;49.866;8.320;2023-02-08T04:49:11;102674.41;;;-4.79;76.70
12868;BME280;33517;49.866;8.320;2023-02-08T04:52:03;102664.16;;;-4.81;76.78
12868;BME280;33517;49.866;8.320;2023-02-08T04:54:55;102673.53;;;-4.78;76.86
12868;BME280;33517;49.866;8.320;2023-02-08T04:57:47;102667.53;;;-4.77;77.06
12868;BME280;33517;49.866;8.320;2023-02-08T05:00:39;102673.53;;;-4.78;77.07
12868;BME280;33517;49.866;8.320;2023-02-08T05:03:31;102666.69;;;-4.78;76.95
12868;BME280;33517;49.866;8.320;2023-02-08T05:06:25;102659.84;;;-4.80;77.20
12868;BME280;33517;49.866;8.320;2023-02-08T05:09:17;102660.72;;;-4.81;77.23
12868;BME280;33517;49.866;8.320;2023-02-08T05:12:08;102655.63;;;-4.83;77.21
12868;BME280;33517;49.866;8.320;2023-02-08T05:15:00;102651.28;;;-4.79;77.72
12868;BME280;33517;49.866;8.320;2023-02-08T05:17:52;102652.94;;;-4.72;77.92
12868;BME280;33517;49.866;8.320;2023-02-08T05:20:44;102658.03;;;-4.66;78.29
12868;BME280;33517;49.866;8.320;2023-02-08T05:23:37;102657.00;;;-4.51;79.13
12868;BME280;33517;49.866;8.320;2023-02-08T05:26:29;102646.59;;;-4.38;79.26
12868;BME280;33517;49.866;8.320;2023-02-08T05:29:21;102646.44;;;-4.24;79.77
12868;BME280;33517;49.866;8.320;2023-02-08T05:32:13;102649.78;;;-4.15;79.48
12868;BME280;33517;49.866;8.320;2023-02-08T05:35:06;102653.06;;;-4.04;79.73
12868;BME280;33517;49.866;8.320;2023-02-08T05:37:58;102655.56;;;-3.96;80.05
12868;BME280;33517;49.866;8.320;2023-02-08T05:40:51;102649.44;;;-3.88;80.29
12868;BME280;33517;49.866;8.320;2023-02-08T05:43:43;102645.13;;;-3.86;79.71
12868;BME280;33517;49.866;8.320;2023-02-08T05:46:36;102654.53;;;-3.83;79.78
12868;BME280;33517;49.866;8.320;2023-02-08T05:49:28;102657.94;;;-3.80;79.80
12868;BME280;33517;49.866;8.320;2023-02-08T05:52:20;102661.25;;;-3.73;79.68
12868;BME280;33517;49.866;8.320;2023-02-08T05:55:11;102669.78;;;-3.68;80.42
12868;BME280;33517;49.866;8.320;2023-02-08T05:58:05;102667.97;;;-3.61;80.29
12868;BME280;33517;49.866;8.320;2023-02-08T06:00:57;102667.06;;;-3.57;80.49
12868;BME280;33517;49.866;8.320;2023-02-08T06:03:48;102665.25;;;-3.51;80.82
12868;BME280;33517;49.866;8.320;2023-02-08T06:06:40;102663.47;;;-3.46;80.29
12868;BME280;33517;49.866;8.320;2023-02-08T06:09:32;102678.78;;;-3.38;81.24
12868;BME280;33517;49.866;8.320;2023-02-08T06:12:24;102684.81;;;-3.39;81.01
12868;BME280;33517;49.866;8.320;2023-02-08T06:15:17;102678.75;;;-3.34;81.43
12868;BME280;33517;49.866;8.320;2023-02-08T06:18:09;102682.22;;;-3.38;81.05
12868;BME280;33517;49.866;8.320;2023-02-08T06:21:01;102687.41;;;-3.42;80.82
12868;BME280;33517;49.866;8.320;2023-02-08T06:23:53;102684.94;;;-3.50;80.61
12868;BME280;33517;49.866;8.320;2023-02-08T06:26:45;102689.38;;;-3.58;80.64
12868;BME280;33517;49.866;8.320;2023-02-08T06:29:38;102688.59;;;-3.64;80.27
12868;BME280;33517;49.866;8.320;2023-02-08T06:32:31;102693.84;;;-3.72;80.40
12868;BME280;33517;49.866;8.320;2023-02-08T06:35:23;102695.63;;;-3.80;80.02
12868;BME280;33517;49.866;8.320;2023-02-08T06:38:15;102695.63;;;-3.80;80.92
12868;BME280;33517;49.866;8.320;2023-02-08T06:41:06;102698.16;;;-3.76;81.28
12868;BME280;33517;49.866;8.320;2023-02-08T06:43:59;102697.25;;;-3.71;81.48
12868;BME280;33517;49.866;8.320;2023-02-08T06:46:51;102703.25;;;-3.69;81.08
12868;BME280;33517;49.866;8.320;2023-02-08T06:49:45;102699.66;;;-3.59;81.33
12868;BME280;33517;49.866;8.320;2023-02-08T06:52:37;102695.19;;;-3.45;81.12
12868;BME280;33517;49.866;8.320;2023-02-08T06:55:29;102695.91;;;-3.34;81.10
12868;BME280;33517;49.866;8.320;2023-02-08T06:58:21;102691.50;;;-3.26;81.22
12868;BME280;33517;49.866;8.320;2023-02-08T07:01:13;102690.53;;;-3.19;81.33
12868;BME280;33517;49.866;8.320;2023-02-08T07:04:05;102691.31;;;-3.14;80.91
12868;BME280;33517;49.866;8.320;2023-02-08T07:06:58;102691.25;;;-3.11;81.29
12868;BME280;33517;49.866;8.320;2023-02-08T07:09:50;102695.44;;;-3.03;81.48
12868;BME280;33517;49.866;8.320;2023-02-08T07:12:42;102697.00;;;-2.94;81.56
12868;BME280;33517;49.866;8.320;2023-02-08T07:15:34;102692.59;;;-2.86;81.58
12868;BME280;33517;49.866;8.320;2023-02-08T07:18:26;102691.56;;;-2.74;81.29
12868;BME280;33517;49.866;8.320;2023-02-08T07:21:18;102694.00;;;-2.67;81.18
12868;BME280;33517;49.866;8.320;2023-02-08T07:24:12;102682.69;;;-2.58;81.27
12868;BME280;33517;49.866;8.320;2023-02-08T07:27:05;102680.75;;;-2.46;81.47
12868;BME280;33517;49.866;8.320;2023-02-08T07:29:57;102685.69;;;-2.34;81.06
12868;BME280;33517;49.866;8.320;2023-02-08T07:32:49;102682.91;;;-2.23;80.96
12868;BME280;33517;49.866;8.320;2023-02-08T07:35:41;102688.69;;;-2.11;80.98
12868;BME280;33517;49.866;8.320;2023-02-08T07:38:33;102697.03;;;-1.98;80.79
12868;BME280;33517;49.866;8.320;2023-02-08T07:41:26;102690.72;;;-1.82;80.28
12868;BME280;33517;49.866;8.320;2023-02-08T07:44:18;102685.16;;;-1.64;80.12
12868;BME280;33517;49.866;8.320;2023-02-08T07:47:10;102674.84;;;-1.26;79.66
12868;BME280;33517;49.866;8.320;2023-02-08T07:50:02;102668.81;;;1.45;76.24
12868;BME280;33517;49.866;8.320;2023-02-08T07:52:54;102644.75;;;4.76;67.55
12868;BME280;33517;49.866;8.320;2023-02-08T07:55:46;102641.44;;;6.71;60.89
12868;BME280;33517;49.866;8.320;2023-02-08T07:58:39;102633.88;;;8.12;57.10
12868;BME280;33517;49.866;8.320;2023-02-08T08:01:31;102636.69;;;9.04;53.41
12868;BME280;33517;49.866;8.320;2023-02-08T08:04:23;102646.56;;;9.13;51.34
12868;BME280;33517;49.866;8.320;2023-02-08T08:07:15;102644.75;;;9.91;49.68
12868;BME280;33517;49.866;8.320;2023-02-08T08:10:07;102653.91;;;10.59;48.11
12868;BME280;33517;49.866;8.320;2023-02-08T08:12:59;102650.41;;;10.95;46.21
12868;BME280;33517;49.866;8.320;2023-02-08T08:15:53;102649.66;;;11.51;45.67
12868;BME280;33517;49.866;8.320;2023-02-08T08:18:45;102662.72;;;12.21;43.33
12868;BME280;33517;49.866;8.320;2023-02-08T08:21:37;102661.44;;;12.58;42.58
12868;BME280;33517;49.866;8.320;2023-02-08T08:24:29;102661.47;;;13.01;42.41
12868;BME280;33517;49.866;8.320;2023-02-08T08:27:25;102675.09;;;13.28;40.61
12868;BME280;33517;49.866;8.320;2023-02-08T08:30:17;102679.38;;;13.60;39.58
12868;BME280;33517;49.866;8.320;2023-02-08T08:33:10;102666.09;;;14.32;38.43
12868;BME280;33517;49.866;8.320;2023-02-08T08:36:03;102664.72;;;15.25;36.66
12868;BME280;33517;49.866;8.320;2023-02-08T08:38:55;102659.28;;;16.28;34.46
12868;BME280;33517;49.866;8.320;2023-02-08T08:41:47;102670.16;;;16.89;33.69
12868;BME280;33517;49.866;8.320;2023-02-08T08:44:39;102667.25;;;17.00;31.99
12868;BME280;33517;49.866;8.320;2023-02-08T08:47:31;102662.53;;;17.98;31.52
12868;BME280;33517;49.866;8.320;2023-02-08T08:50:25;102658.78;;;18.43;30.42
12868;BME280;33517;49.866;8.320;2023-02-08T08:53:17;102667.25;;;19.04;30.70
12868;BME280;33517;49.866;8.320;2023-02-08T08:56:08;102655.00;;;18.19;28.95
12868;BME280;33517;49.866;8.320;2023-02-08T08:59:00;102655.72;;;18.37;28.54
12868;BME280;33517;49.866;8.320;2023-02-08T09:01:52;102653.81;;;18.56;28.22
12868;BME280;33517;49.866;8.320;2023-02-08T09:04:44;102658.28;;;18.47;27.44
12868;BME280;33517;49.866;8.320;2023-02-08T09:07:38;102658.28;;;18.13;27.57
12868;BME280;33517;49.866;8.320;2023-02-08T09:10:30;102658.75;;;18.92;28.06
12868;BME280;33517;49.866;8.320;2023-02-08T09:13:21;102657.06;;;19.64;27.27
12868;BME280;33517;49.866;8.320;2023-02-08T09:16:16;102652.44;;;19.34;27.38
12868;BME280;33517;49.866;8.320;2023-02-08T09:19:09;102662.25;;;19.17;26.50
12868;BME280;33517;49.866;8.320;2023-02-08T09:22:01;102657.00;;;18.67;27.35
12868;BME280;33517;49.866;8.320;2023-02-08T09:24:54;102651.88;;;17.98;26.60
12868;BME280;33517;49.866;8.320;2023-02-08T09:27:46;102661.13;;;17.86;28.59
12868;BME280;33517;49.866;8.320;2023-02-08T09:30:38;102653.19;;;17.25;28.20
12868;BME280;33517;49.866;8.320;2023-02-08T09:33:30;102659.84;;;16.77;27.84
12868;BME280;33517;49.866;8.320;2023-02-08T09:36:23;102660.19;;;16.91;28.85
12868;BME280;33517;49.866;8.320;2023-02-08T09:39:18;102655.19;;;17.92;28.24
12868;BME280;33517;49.866;8.320;2023-02-08T09:42:20;102655.06;;;18.02;27.54
12868;BME280;33517;49.866;8.320;2023-02-08T09:45:31;102653.16;;;17.43;28.07
12868;BME280;33517;49.866;8.320;2023-02-08T09:48:30;102647.19;;;17.92;27.85
12868;BME280;33517;49.866;8.320;2023-02-08T09:51:28;102655.03;;;16.90;27.69
12868;BME280;33517;49.866;8.320;2023-02-08T09:54:23;102650.16;;;16.85;27.37
12868;BME280;33517;49.866;8.320;2023-02-08T09:57:21;102649.34;;;17.89;27.35
12868;BME280;33517;49.866;8.320;2023-02-08T10:00:20;102652.63;;;17.57;27.69
12868;BME280;33517;49.866;8.320;2023-02-08T10:03:28;102650.50;;;18.62;27.42
12868;BME280;33517;49.866;8.320;2023-02-08T10:06:22;102646.28;;;18.09;27.08
12868;BME280;33517;49.866;8.320;2023-02-08T10:09:19;102653.41;;;18.09;26.14
12868;BME280;33517;49.866;8.320;2023-02-08T10:12:18;102648.56;;;18.38;25.70
12868;BME280;33517;49.866;8.320;2023-02-08T10:15:23;102647.50;;;17.89;25.63
12868;BME280;33517;49.866;8.320;2023-02-08T10:18:28;102651.81;;;18.24;26.27
12868;BME280;33517;49.866;8.320;2023-02-08T10:21:36;102647.88;;;18.36;26.60
12868;BME280;33517;49.866;8.320;2023-02-08T10:24:47;102646.41;;;19.07;25.61
12868;BME280;33517;49.866;8.320;2023-02-08T10:27:54;102636.03;;;18.30;26.00
12868;BME280;33517;49.866;8.320;2023-02-08T10:30:54;102637.94;;;18.04;26.49
12868;BME280;33517;49.866;8.320;2023-02-08T10:33:53;102643.34;;;18.70;25.85
12868;BME280;33517;49.866;8.320;2023-02-08T10:36:50;102644.66;;;18.66;26.13
12868;BME280;33517;49.866;8.320;2023-02-08T10:39:43;102635.22;;;19.20;26.00
12868;BME280;33517;49.866;8.320;2023-02-08T10:42:36;102632.03;;;18.76;25.54
12868;BME280;33517;49.866;8.320;2023-02-08T10:45:34;102626.22;;;19.05;26.23
12868;BME280;33517;49.866;8.320;2023-02-08T10:48:40;102627.88;;;19.30;25.81
12868;BME280;33517;49.866;8.320;2023-02-08T10:51:35;102629.25;;;19.50;25.49
12868;BME280;33517;49.866;8.320;2023-02-08T10:54:27;102626.13;;;19.85;24.73
12868;BME280;33517;49.866;8.320;2023-02-08T10:57:22;102623.72;;;19.36;25.16
12868;BME280;33517;49.866;8.320;2023-02-08T11:00:18;102619.03;;;19.54;25.09
12868;BME280;33517;49.866;8.320;2023-02-08T11:03:16;102604.72;;;18.98;25.23
12868;BME280;33517;49.866;8.320;2023-02-08T11:06:24;102601.22;;;19.06;24.97
12868;BME280;33517;49.866;8.320;2023-02-08T11:09:21;102600.69;;;19.02;25.70
12868;BME280;33517;49.866;8.320;2023-02-08T11:12:18;102591.00;;;19.25;25.50
12868;BME280;33517;49.866;8.320;2023-02-08T11:15:21;102583.84;;;19.50;24.99
12868;BME280;33517;49.866;8.320;2023-02-08T11:18:23;102590.00;;;19.02;25.02
12868;BME280;33517;49.866;8.320;2023-02-08T11:21:21;102577.78;;;19.56;24.53
12868;BME280;33517;49.866;8.320;2023-02-08T11:24:25;102581.00;;;18.95;24.62
12868;BME280;33517;49.866;8.320;2023-02-08T11:27:28;102580.34;;;19.09;24.81
12868;BME280;33517;49.866;8.320;2023-02-08T11:30:22;102575.38;;;18.24;24.52
12868;BME280;33517;49.866;8.320;2023-02-08T11:33:19;102566.50;;;18.08;24.50
12868;BME280;33517;49.866;8.320;2023-02-08T11:36:14;102571.47;;;18.45;24.21
12868;BME280;33517;49.866;8.320;2023-02-08T11:39:15;102575.88;;;18.28;24.80
12868;BME280;33517;49.866;8.320;2023-02-08T11:42:17;102576.06;;;17.33;24.43
12868;BME280;33517;49.866;8.320;2023-02-08T11:45:18;102579.53;;;17.26;25.46
12868;BME280;33517;49.866;8.320;2023-02-08T11:48:20;102569.56;;;17.54;24.97
12868;BME280;33517;49.866;8.320;2023-02-08T11:51:24;102556.69;;;18.08;25.43
12868;BME280;33517;49.866;8.320;2023-02-08T11:54:38;102549.22;;;17.78;24.36
12868;BME280;33517;49.866;8.320;2023-02-08T11:57:30;102549.19;;;17.70;24.42
12868;BME280;33517;49.866;8.320;2023-02-08T12:00:25;102542.00;;;17.37;24.93
12868;BME280;33517;49.866;8.320;2023-02-08T12:03:22;102545.66;;;16.93;25.34
12868;BME280;33517;49.866;8.320;2023-02-08T12:06:33;102544.47;;;16.52;24.84
12868;BME280;33517;49.866;8.320;2023-02-08T12:09:53;102547.91;;;16.35;25.12
12868;BME280;33517;49.866;8.320;2023-02-08T12:13:07;102534.63;;;17.05;24.95
12868;BME280;33517;49.866;8.320;2023-02-08T12:16:14;102527.88;;;17.19;25.55
12868;BME280;33517;49.866;8.320;2023-02-08T12:19:28;102523.41;;;17.45;25.53
12868;BME280;33517;49.866;8.320;2023-02-08T12:22:26;102516.00;;;17.31;25.14
12868;BME280;33517;49.866;8.320;2023-02-08T12:25:26;102513.66;;;17.28;24.42
12868;BME280;33517;49.866;8.320;2023-02-08T12:28:26;102517.19;;;17.62;24.96
12868;BME280;33517;49.866;8.320;2023-02-08T12:31:27;102507.97;;;17.48;24.06
12868;BME280;33517;49.866;8.320;2023-02-08T12:34:34;102516.44;;;15.95;24.22
12868;BME280;33517;49.866;8.320;2023-02-08T12:37:35;102512.09;;;16.39;25.51
12868;BME280;33517;49.866;8.320;2023-02-08T12:40:53;102513.78;;;16.40;23.91
12868;BME280;33517;49.866;8.320;2023-02-08T12:43:53;102501.56;;;16.65;24.35
12868;BME280;33517;49.866;8.320;2023-02-08T12:46:59;102497.78;;;16.93;23.96
12868;BME280;33517;49.866;8.320;2023-02-08T12:50:02;102492.50;;;16.57;24.09
12868;BME280;33517;49.866;8.320;2023-02-08T12:53:01;102481.66;;;16.94;24.22
12868;BME280;33517;49.866;8.320;2023-02-08T12:55:55;102479.53;;;16.72;24.60
12868;BME280;33517;49.866;8.320;2023-02-08T12:58:51;102480.22;;;15.94;24.10
12868;BME280;33517;49.866;8.320;2023-02-08T13:01:46;102474.56;;;15.62;24.03
12868;BME280;33517;49.866;8.320;2023-02-08T13:04:44;102466.78;;;16.05;24.65
12868;BME280;33517;49.866;8.320;2023-02-08T13:07:39;102463.03;;;16.33;24.17
12868;BME280;33517;49.866;8.320;2023-02-08T13:10:37;102460.72;;;16.48;23.82
12868;BME280;33517;49.866;8.320;2023-02-08T13:13:34;102454.81;;;16.80;23.94
12868;BME280;33517;49.866;8.320;2023-02-08T13:16:29;102456.53;;;16.63;23.69
12868;BME280;33517;49.866;8.320;2023-02-08T13:19:28;102455.28;;;17.01;24.34
12868;BME280;33517;49.866;8.320;2023-02-08T13:22:22;102449.13;;;16.75;23.76
12868;BME280;33517;49.866;8.320;2023-02-08T13:25:19;102444.13;;;16.97;24.27
12868;BME280;33517;49.866;8.320;2023-02-08T13:28:18;102443.06;;;16.47;24.17
12868;BME280;33517;49.866;8.320;2023-02-08T13:31:13;102444.25;;;16.09;23.82
12868;BME280;33517;49.866;8.320;2023-02-08T13:34:13;102428.50;;;16.16;24.63
12868;BME280;33517;49.866;8.320;2023-02-08T13:37:18;102422.13;;;15.91;24.68
12868;BME280;33517;49.866;8.320;2023-02-08T13:40:18;102417.13;;;16.23;23.97
12868;BME280;33517;49.866;8.320;2023-02-08T13:43:23;102401.09;;;16.50;24.35
12868;BME280;33517;49.866;8.320;2023-02-08T13:46:18;102403.41;;;16.10;23.67
12868;BME280;33517;49.866;8.320;2023-02-08T13:49:50;102403.69;;;15.45;24.52
12868;BME280;33517;49.866;8.320;2023-02-08T13:52:48;102408.72;;;15.11;25.04
12868;BME280;33517;49.866;8.320;2023-02-08T13:56:02;102400.72;;;15.21;25.29
12868;BME280;33517;49.866;8.320;2023-02-08T13:59:00;102404.50;;;15.18;25.21
12868;BME280;33517;49.866;8.320;2023-02-08T14:02:18;102397.78;;;14.77;25.21
12868;BME280;33517;49.866;8.320;2023-02-08T14:05:39;102393.38;;;14.59;25.85
12868;BME280;33517;49.866;8.320;2023-02-08T14:08:40;102395.91;;;12.54;26.77
12868;BME280;33517;49.866;8.320;2023-02-08T14:11:41;102397.13;;;10.66;28.29
12868;BME280;33517;49.866;8.320;2023-02-08T14:14:38;102388.38;;;9.49;29.40
12868;BME280;33517;49.866;8.320;2023-02-08T14:17:30;102391.31;;;8.83;31.11
12868;BME280;33517;49.866;8.320;2023-02-08T14:20:27;102384.75;;;8.38;32.18
12868;BME280;33517;49.866;8.320;2023-02-08T14:23:24;102400.41;;;7.87;32.34
12868;BME280;33517;49.866;8.320;2023-02-08T14:26:20;102401.00;;;7.51;32.89
12868;BME280;33517;49.866;8.320;2023-02-08T14:29:20;102390.69;;;7.21;32.81
12868;BME280;33517;49.866;8.320;2023-02-08T14:32:23;102384.78;;;6.90;34.28
12868;BME280;33517;49.866;8.320;2023-02-08T14:35:19;102374.88;;;6.67;35.22
12868;BME280;33517;49.866;8.320;2023-02-08T14:41:50;102376.13;;;6.45;35.55
12868;BME280;33517;49.866;8.320;2023-02-08T14:44:44;102368.09;;;6.34;35.59
12868;BME280;33517;49.866;8.320;2023-02-08T14:47:54;102369.56;;;6.24;35.83
12868;BME280;33517;49.866;8.320;2023-02-08T14:50:51;102362.91;;;6.19;36.61
12868;BME280;33517;49.866;8.320;2023-02-08T14:53:48;102368.78;;;6.08;35.58
12868;BME280;33517;49.866;8.320;2023-02-08T14:56:50;102356.16;;;6.01;36.33
12868;BME280;33517;49.866;8.320;2023-02-08T14:59:44;102353.69;;;5.98;36.43
12868;BME280;33517;49.866;8.320;2023-02-08T15:02:40;102351.38;;;5.93;36.91
12868;BME280;33517;49.866;8.320;2023-02-08T15:05:40;102341.09;;;5.90;37.00
12868;BME280;33517;49.866;8.320;2023-02-08T15:08:33;102351.38;;;5.78;37.59
12868;BME280;33517;49.866;8.320;2023-02-08T15:11:27;102347.59;;;5.68;37.38
12868;BME280;33517;49.866;8.320;2023-02-08T15:14:20;102352.47;;;5.58;37.77
12868;BME280;33517;49.866;8.320;2023-02-08T15:17:29;102344.13;;;5.51;38.09
12868;BME280;33517;49.866;8.320;2023-02-08T15:20:23;102341.94;;;5.44;38.50
12868;BME280;33517;49.866;8.320;2023-02-08T15:23:19;102326.81;;;5.35;38.79
12868;BME280;33517;49.866;8.320;2023-02-08T15:26:19;102328.91;;;5.28;38.79
12868;BME280;33517;49.866;8.320;2023-02-08T15:29:20;102322.44;;;5.20;38.77
12868;BME280;33517;49.866;8.320;2023-02-08T15:32:14;102318.47;;;5.13;38.93